Terminal Aerodrome Forecast
Issued by NWS

Home | Current Version | Previous Version | Text Only | Print | Product List | Glossary On
Versions: 1 2 3 4 5 6 7 8 9 10 11 12 13 14 15 16 17 18 19 20 21 22
000
FTUS42 KTBW 021130
TAFPIE
TAF
KPIE 021130Z 0212/0312 20010KT P6SM SCT025 BKN100
      TEMPO 0212/0214 BKN025
     FM021400 22015G25KT P6SM VCSH SCT025 BKN050 OVC100
      TEMPO 0214/0217 VRB15G25KT 3SM +SHRA BKN025
     FM021700 23020G27KT 6SM -RA VCTS SCT025CB OVC050
     FM030200 21010KT P6SM -RA VCTS SCT025CB BKN035 OVC060=

USA.gov is the U.S. government's official web portal to all federal, state and local government web resources and services.